Eielson Air Force Base
PAEI : now visible

Airfield :











YOU CAN JOIN US ON...

 
LOGIN :

Register | Disclaimer

   EN    FR    IT 

 









Legend :    VFR   Marginal VFR   IFR   Intensive IFR   Very Intensive IFR
Visi :
Ceiling :
>= 8 km
>= 3000ft
5 to 8 km
1000 to 3000 ft
1500m to 5 km
500 to 1000 ft
800 to 1500m
200 to 500 ft
< 800m
< 200 ft
Symbols :   Thunderstorms  Fog  Heavy snow  Heavy precipitations  Wind > 20 kt






- Airport Elevation : 547 ft
- IATA code : EIL


PAEI - Eielson Air Force Base

CURRENT METAR :
  • 271356Z AUTO 00000KT 10SM SCT085 BKN120 M14/M17 A2952 RMK AO2 SLP011 T11451171

EXPIRED METARs :
  • 271256Z AUTO 00000KT 10SM BKN100 OVC110 M15/M18 A2955 RMK AO2 SLP021 T11551182
  • 271156Z AUTO 00000KT 10SM OVC110 M16/M19 A2956 RMK AO2 SLP024 60000 T11611188 11135 21185 57013

TAF COR TAF PAEI
Valid from the 26 at 19:00 until the 28 at 01:00 UTC


261907Z 2619/2801 14006KT 9999 -SN OVC005 600403 QNH2944INS
BECMG 2700/2701 23003KT 9999 NSW FEW020 SCT040 QNH2950INS TXM04/2621Z TNM08/2715Z LAST NO AMDS AFT 2619 NEXT 2714
PAZA FIR / North America



MET'MAP, your aeronautical weather chart ! - Copyright ORBIFLY December 2007 - Disclaimer

ORBIFLY MET'MAP TEAM :

Programming & Development : Alexandra Zaïnal
Concept & original design : Baudouin d'Aumeries
Assistance for programming : Marc-Olivier Méhu
Technical & hardware support : Manuel Goepfert

Contact : metmap@orbifly.com




SOURCES & CREDITS :

   NOAA       Earth
Advisory